sensor_id;sensor_type;location;lat;lon;timestamp;temperature;humidity
51719;DHT22;37795;53.236;5.704;2022-10-17T00:01:45;13.10;74.70
51719;DHT22;37795;53.236;5.704;2022-10-17T00:04:11;13.20;74.60
51719;DHT22;37795;53.236;5.704;2022-10-17T00:06:38;13.20;74.50
51719;DHT22;37795;53.236;5.704;2022-10-17T00:09:03;13.20;74.50
51719;DHT22;37795;53.236;5.704;2022-10-17T00:11:29;13.20;74.50
51719;DHT22;37795;53.236;5.704;2022-10-17T00:13:55;13.30;74.60
51719;DHT22;37795;53.236;5.704;2022-10-17T00:16:33;13.30;74.70
51719;DHT22;37795;53.236;5.704;2022-10-17T00:19:01;13.30;74.70
51719;DHT22;37795;53.236;5.704;2022-10-17T00:21:27;13.30;74.80
51719;DHT22;37795;53.236;5.704;2022-10-17T00:23:53;13.40;74.60
51719;DHT22;37795;53.236;5.704;2022-10-17T00:26:19;13.40;74.70
51719;DHT22;37795;53.236;5.704;2022-10-17T00:28:46;13.40;74.70
51719;DHT22;37795;53.236;5.704;2022-10-17T00:31:12;13.40;74.60
51719;DHT22;37795;53.236;5.704;2022-10-17T00:33:38;13.40;74.80
51719;DHT22;37795;53.236;5.704;2022-10-17T00:36:08;13.30;75.00
51719;DHT22;37795;53.236;5.704;2022-10-17T00:38:35;13.30;75.10
51719;DHT22;37795;53.236;5.704;2022-10-17T00:41:01;13.40;75.20
51719;DHT22;37795;53.236;5.704;2022-10-17T00:43:28;13.40;75.30
51719;DHT22;37795;53.236;5.704;2022-10-17T00:45:54;13.40;75.40
51719;DHT22;37795;53.236;5.704;2022-10-17T00:48:21;13.40;75.70
51719;DHT22;37795;53.236;5.704;2022-10-17T00:50:49;13.40;75.70
51719;DHT22;37795;53.236;5.704;2022-10-17T00:53:16;13.40;75.90
51719;DHT22;37795;53.236;5.704;2022-10-17T00:55:49;13.40;76.00
51719;DHT22;37795;53.236;5.704;2022-10-17T00:58:16;13.40;76.10
51719;DHT22;37795;53.236;5.704;2022-10-17T01:00:42;13.50;76.10
51719;DHT22;37795;53.236;5.704;2022-10-17T01:03:09;13.50;76.10
51719;DHT22;37795;53.236;5.704;2022-10-17T01:05:35;13.50;76.00
51719;DHT22;37795;53.236;5.704;2022-10-17T01:08:01;13.50;76.20
51719;DHT22;37795;53.236;5.704;2022-10-17T01:10:32;13.60;76.20
51719;DHT22;37795;53.236;5.704;2022-10-17T01:13:10;13.60;76.20
51719;DHT22;37795;53.236;5.704;2022-10-17T01:18:33;13.70;76.30
51719;DHT22;37795;53.236;5.704;2022-10-17T01:35:30;13.70;77.20
51719;DHT22;37795;53.236;5.704;2022-10-17T01:40:45;13.60;77.60
51719;DHT22;37795;53.236;5.704;2022-10-17T01:43:25;13.60;77.80
51719;DHT22;37795;53.236;5.704;2022-10-17T01:46:15;13.60;77.90
51719;DHT22;37795;53.236;5.704;2022-10-17T01:48:44;13.60;78.00
51719;DHT22;37795;53.236;5.704;2022-10-17T01:51:23;13.50;78.20
51719;DHT22;37795;53.236;5.704;2022-10-17T01:54:00;13.50;78.30
51719;DHT22;37795;53.236;5.704;2022-10-17T01:56:28;13.50;78.30
51719;DHT22;37795;53.236;5.704;2022-10-17T01:59:14;13.60;78.40
51719;DHT22;37795;53.236;5.704;2022-10-17T02:01:43;13.50;78.40
51719;DHT22;37795;53.236;5.704;2022-10-17T02:04:10;13.50;78.80
51719;DHT22;37795;53.236;5.704;2022-10-17T02:06:36;13.50;78.60
51719;DHT22;37795;53.236;5.704;2022-10-17T02:09:19;13.50;78.70
51719;DHT22;37795;53.236;5.704;2022-10-17T02:12:09;13.50;78.90
51719;DHT22;37795;53.236;5.704;2022-10-17T02:15:09;13.40;79.10
51719;DHT22;37795;53.236;5.704;2022-10-17T02:18:21;13.40;79.20
51719;DHT22;37795;53.236;5.704;2022-10-17T02:23:38;13.30;79.60
51719;DHT22;37795;53.236;5.704;2022-10-17T02:26:18;13.30;79.60
51719;DHT22;37795;53.236;5.704;2022-10-17T02:29:08;13.30;79.80
51719;DHT22;37795;53.236;5.704;2022-10-17T02:31:43;13.30;80.00
51719;DHT22;37795;53.236;5.704;2022-10-17T02:34:17;13.30;80.00
51719;DHT22;37795;53.236;5.704;2022-10-17T02:36:51;13.30;80.00
51719;DHT22;37795;53.236;5.704;2022-10-17T02:39:19;13.30;80.30
51719;DHT22;37795;53.236;5.704;2022-10-17T02:41:48;13.30;80.30
51719;DHT22;37795;53.236;5.704;2022-10-17T02:44:15;13.30;80.40
51719;DHT22;37795;53.236;5.704;2022-10-17T02:46:41;13.30;80.30
51719;DHT22;37795;53.236;5.704;2022-10-17T02:49:37;13.30;80.40
51719;DHT22;37795;53.236;5.704;2022-10-17T02:52:26;13.30;80.50
51719;DHT22;37795;53.236;5.704;2022-10-17T02:54:57;13.20;80.60
51719;DHT22;37795;53.236;5.704;2022-10-17T02:57:41;13.20;80.80
51719;DHT22;37795;53.236;5.704;2022-10-17T03:00:11;13.20;80.90
51719;DHT22;37795;53.236;5.704;2022-10-17T03:02:48;13.30;81.00
51719;DHT22;37795;53.236;5.704;2022-10-17T03:05:26;13.20;81.10
51719;DHT22;37795;53.236;5.704;2022-10-17T03:07:53;13.20;81.20
51719;DHT22;37795;53.236;5.704;2022-10-17T03:10:19;13.30;81.30
51719;DHT22;37795;53.236;5.704;2022-10-17T03:12:45;13.30;81.30
51719;DHT22;37795;53.236;5.704;2022-10-17T03:15:11;13.30;81.60
51719;DHT22;37795;53.236;5.704;2022-10-17T03:17:37;13.30;81.70
51719;DHT22;37795;53.236;5.704;2022-10-17T03:20:04;13.30;81.70
51719;DHT22;37795;53.236;5.704;2022-10-17T03:22:31;13.30;81.80
51719;DHT22;37795;53.236;5.704;2022-10-17T03:24:57;13.30;81.90
51719;DHT22;37795;53.236;5.704;2022-10-17T03:27:22;13.30;82.20
51719;DHT22;37795;53.236;5.704;2022-10-17T03:29:48;13.30;82.30
51719;DHT22;37795;53.236;5.704;2022-10-17T03:32:14;13.30;82.50
51719;DHT22;37795;53.236;5.704;2022-10-17T03:34:39;13.30;82.60
51719;DHT22;37795;53.236;5.704;2022-10-17T03:37:05;13.30;82.60
51719;DHT22;37795;53.236;5.704;2022-10-17T03:39:31;13.30;82.70
51719;DHT22;37795;53.236;5.704;2022-10-17T03:41:57;13.30;82.90
51719;DHT22;37795;53.236;5.704;2022-10-17T03:44:22;13.30;82.80
51719;DHT22;37795;53.236;5.704;2022-10-17T03:46:48;13.20;83.00
51719;DHT22;37795;53.236;5.704;2022-10-17T03:49:14;13.20;83.10
51719;DHT22;37795;53.236;5.704;2022-10-17T03:51:39;13.20;83.10
51719;DHT22;37795;53.236;5.704;2022-10-17T03:54:05;13.20;83.40
51719;DHT22;37795;53.236;5.704;2022-10-17T03:56:30;13.20;83.60
51719;DHT22;37795;53.236;5.704;2022-10-17T03:58:56;13.20;83.50
51719;DHT22;37795;53.236;5.704;2022-10-17T04:01:22;13.20;83.50
51719;DHT22;37795;53.236;5.704;2022-10-17T04:03:54;13.10;83.70
51719;DHT22;37795;53.236;5.704;2022-10-17T04:06:21;13.20;83.70
51719;DHT22;37795;53.236;5.704;2022-10-17T04:08:48;13.20;83.80
51719;DHT22;37795;53.236;5.704;2022-10-17T04:11:16;13.20;83.80
51719;DHT22;37795;53.236;5.704;2022-10-17T04:13:43;13.10;84.00
51719;DHT22;37795;53.236;5.704;2022-10-17T04:16:12;13.20;84.00
51719;DHT22;37795;53.236;5.704;2022-10-17T04:18:38;13.20;84.00
51719;DHT22;37795;53.236;5.704;2022-10-17T04:21:05;13.20;84.10
51719;DHT22;37795;53.236;5.704;2022-10-17T04:23:32;13.20;84.30
51719;DHT22;37795;53.236;5.704;2022-10-17T04:25:59;13.20;84.30
51719;DHT22;37795;53.236;5.704;2022-10-17T04:28:26;13.30;84.10
51719;DHT22;37795;53.236;5.704;2022-10-17T04:33:21;13.40;84.30
51719;DHT22;37795;53.236;5.704;2022-10-17T04:35:57;13.40;84.40
51719;DHT22;37795;53.236;5.704;2022-10-17T04:38:23;13.40;84.50
51719;DHT22;37795;53.236;5.704;2022-10-17T04:40:49;13.40;84.60
51719;DHT22;37795;53.236;5.704;2022-10-17T04:43:14;13.50;84.90
51719;DHT22;37795;53.236;5.704;2022-10-17T04:45:40;13.50;84.80
51719;DHT22;37795;53.236;5.704;2022-10-17T04:48:06;13.50;84.90
51719;DHT22;37795;53.236;5.704;2022-10-17T04:50:31;13.60;85.00
51719;DHT22;37795;53.236;5.704;2022-10-17T04:52:57;13.60;85.00
51719;DHT22;37795;53.236;5.704;2022-10-17T04:55:23;13.60;85.00
51719;DHT22;37795;53.236;5.704;2022-10-17T04:57:49;13.70;85.00
51719;DHT22;37795;53.236;5.704;2022-10-17T05:00:15;13.70;85.10
51719;DHT22;37795;53.236;5.704;2022-10-17T05:02:40;13.70;85.20
51719;DHT22;37795;53.236;5.704;2022-10-17T05:05:06;13.70;85.30
51719;DHT22;37795;53.236;5.704;2022-10-17T05:07:32;13.80;85.60
51719;DHT22;37795;53.236;5.704;2022-10-17T05:09:58;13.80;85.50
51719;DHT22;37795;53.236;5.704;2022-10-17T05:12:24;13.80;85.40
51719;DHT22;37795;53.236;5.704;2022-10-17T05:14:50;13.80;85.50
51719;DHT22;37795;53.236;5.704;2022-10-17T05:17:15;13.90;85.80
51719;DHT22;37795;53.236;5.704;2022-10-17T05:19:41;13.90;85.90
51719;DHT22;37795;53.236;5.704;2022-10-17T05:22:07;13.90;85.80
51719;DHT22;37795;53.236;5.704;2022-10-17T05:24:32;13.90;85.70
51719;DHT22;37795;53.236;5.704;2022-10-17T05:26:58;13.90;85.90
51719;DHT22;37795;53.236;5.704;2022-10-17T05:29:24;13.90;85.90
51719;DHT22;37795;53.236;5.704;2022-10-17T05:31:50;13.90;85.90
51719;DHT22;37795;53.236;5.704;2022-10-17T05:34:15;13.90;85.90
51719;DHT22;37795;53.236;5.704;2022-10-17T05:36:41;14.00;86.00
51719;DHT22;37795;53.236;5.704;2022-10-17T05:39:07;14.00;86.10
51719;DHT22;37795;53.236;5.704;2022-10-17T05:41:33;14.00;86.20
51719;DHT22;37795;53.236;5.704;2022-10-17T05:43:59;14.00;86.20
51719;DHT22;37795;53.236;5.704;2022-10-17T05:46:24;14.00;86.30
51719;DHT22;37795;53.236;5.704;2022-10-17T05:48:50;14.00;86.30
51719;DHT22;37795;53.236;5.704;2022-10-17T05:51:17;14.10;86.20
51719;DHT22;37795;53.236;5.704;2022-10-17T05:53:42;14.10;86.30
51719;DHT22;37795;53.236;5.704;2022-10-17T05:56:10;14.10;86.20
51719;DHT22;37795;53.236;5.704;2022-10-17T05:58:40;14.10;86.20
51719;DHT22;37795;53.236;5.704;2022-10-17T06:01:08;14.10;86.40
51719;DHT22;37795;53.236;5.704;2022-10-17T06:03:34;14.20;86.30
51719;DHT22;37795;53.236;5.704;2022-10-17T06:06:05;14.20;86.30
51719;DHT22;37795;53.236;5.704;2022-10-17T06:08:31;14.20;86.20
51719;DHT22;37795;53.236;5.704;2022-10-17T06:10:57;14.20;86.20
51719;DHT22;37795;53.236;5.704;2022-10-17T06:13:22;14.20;86.20
51719;DHT22;37795;53.236;5.704;2022-10-17T06:15:48;14.30;86.00
51719;DHT22;37795;53.236;5.704;2022-10-17T06:18:14;14.30;86.00
51719;DHT22;37795;53.236;5.704;2022-10-17T06:20:39;14.30;86.00
51719;DHT22;37795;53.236;5.704;2022-10-17T06:23:05;14.30;86.10
51719;DHT22;37795;53.236;5.704;2022-10-17T06:25:32;14.20;85.90
51719;DHT22;37795;53.236;5.704;2022-10-17T06:27:57;14.30;85.90
51719;DHT22;37795;53.236;5.704;2022-10-17T06:30:24;14.30;85.80
51719;DHT22;37795;53.236;5.704;2022-10-17T06:32:51;14.30;85.80
51719;DHT22;37795;53.236;5.704;2022-10-17T06:35:16;14.30;85.90
51719;DHT22;37795;53.236;5.704;2022-10-17T06:37:42;14.30;85.80
51719;DHT22;37795;53.236;5.704;2022-10-17T06:40:08;14.30;85.80
51719;DHT22;37795;53.236;5.704;2022-10-17T06:42:37;14.30;85.90
51719;DHT22;37795;53.236;5.704;2022-10-17T06:45:03;14.30;85.70
51719;DHT22;37795;53.236;5.704;2022-10-17T06:47:29;14.30;85.60
51719;DHT22;37795;53.236;5.704;2022-10-17T06:49:55;14.40;85.60
51719;DHT22;37795;53.236;5.704;2022-10-17T06:52:21;14.40;85.40
51719;DHT22;37795;53.236;5.704;2022-10-17T06:59:51;14.70;85.30
51719;DHT22;37795;53.236;5.704;2022-10-17T07:02:17;14.30;86.10
51719;DHT22;37795;53.236;5.704;2022-10-17T07:04:45;14.50;85.90
51719;DHT22;37795;53.236;5.704;2022-10-17T07:07:11;14.60;85.90
51719;DHT22;37795;53.236;5.704;2022-10-17T07:09:37;14.70;85.60
51719;DHT22;37795;53.236;5.704;2022-10-17T07:12:03;14.80;85.50
51719;DHT22;37795;53.236;5.704;2022-10-17T07:14:32;14.80;85.40
51719;DHT22;37795;53.236;5.704;2022-10-17T07:16:58;14.90;85.20
51719;DHT22;37795;53.236;5.704;2022-10-17T07:19:24;15.20;85.00
51719;DHT22;37795;53.236;5.704;2022-10-17T07:21:51;15.10;84.70
51719;DHT22;37795;53.236;5.704;2022-10-17T07:24:17;15.10;84.90
51719;DHT22;37795;53.236;5.704;2022-10-17T07:26:43;15.10;85.00
51719;DHT22;37795;53.236;5.704;2022-10-17T07:29:09;15.20;85.10
51719;DHT22;37795;53.236;5.704;2022-10-17T07:31:35;15.20;85.20
51719;DHT22;37795;53.236;5.704;2022-10-17T07:34:01;15.40;84.80
51719;DHT22;37795;53.236;5.704;2022-10-17T07:36:27;15.40;84.60
51719;DHT22;37795;53.236;5.704;2022-10-17T07:38:52;15.50;84.60
51719;DHT22;37795;53.236;5.704;2022-10-17T07:41:18;15.50;84.60
51719;DHT22;37795;53.236;5.704;2022-10-17T07:43:44;15.60;84.90
51719;DHT22;37795;53.236;5.704;2022-10-17T07:46:10;15.60;84.80
51719;DHT22;37795;53.236;5.704;2022-10-17T07:48:37;15.70;84.60
51719;DHT22;37795;53.236;5.704;2022-10-17T07:51:05;15.70;84.60
51719;DHT22;37795;53.236;5.704;2022-10-17T07:53:34;15.80;84.40
51719;DHT22;37795;53.236;5.704;2022-10-17T07:56:06;15.90;84.00
51719;DHT22;37795;53.236;5.704;2022-10-17T07:58:33;15.90;84.00
51719;DHT22;37795;53.236;5.704;2022-10-17T08:01:03;16.00;84.10
51719;DHT22;37795;53.236;5.704;2022-10-17T08:03:29;16.00;83.80
51719;DHT22;37795;53.236;5.704;2022-10-17T08:05:59;16.00;83.80
51719;DHT22;37795;53.236;5.704;2022-10-17T08:08:25;16.00;83.80
51719;DHT22;37795;53.236;5.704;2022-10-17T08:10:51;16.00;83.80
51719;DHT22;37795;53.236;5.704;2022-10-17T08:13:18;16.00;83.80
51719;DHT22;37795;53.236;5.704;2022-10-17T08:15:44;16.00;84.00
51719;DHT22;37795;53.236;5.704;2022-10-17T08:18:12;16.00;84.00
51719;DHT22;37795;53.236;5.704;2022-10-17T08:20:39;16.00;84.10
51719;DHT22;37795;53.236;5.704;2022-10-17T08:23:05;16.00;84.00
51719;DHT22;37795;53.236;5.704;2022-10-17T08:25:31;16.00;83.90
51719;DHT22;37795;53.236;5.704;2022-10-17T08:27:57;16.00;84.10
51719;DHT22;37795;53.236;5.704;2022-10-17T08:30:23;16.00;84.00
51719;DHT22;37795;53.236;5.704;2022-10-17T08:32:49;16.00;83.90
51719;DHT22;37795;53.236;5.704;2022-10-17T08:35:14;16.00;83.90
51719;DHT22;37795;53.236;5.704;2022-10-17T08:37:41;16.00;84.00
51719;DHT22;37795;53.236;5.704;2022-10-17T08:40:13;16.10;84.10
51719;DHT22;37795;53.236;5.704;2022-10-17T08:42:56;16.00;84.10
51719;DHT22;37795;53.236;5.704;2022-10-17T08:45:44;16.00;84.30
51719;DHT22;37795;53.236;5.704;2022-10-17T08:48:15;16.00;84.50
51719;DHT22;37795;53.236;5.704;2022-10-17T08:50:49;16.00;84.50
51719;DHT22;37795;53.236;5.704;2022-10-17T08:53:38;16.00;84.70
51719;DHT22;37795;53.236;5.704;2022-10-17T08:56:22;16.00;85.00
51719;DHT22;37795;53.236;5.704;2022-10-17T08:58:48;15.90;85.30
51719;DHT22;37795;53.236;5.704;2022-10-17T09:09:23;15.80;85.80
51719;DHT22;37795;53.236;5.704;2022-10-17T09:17:33;15.80;86.10
51719;DHT22;37795;53.236;5.704;2022-10-17T09:20:23;15.80;86.20
51719;DHT22;37795;53.236;5.704;2022-10-17T09:22:58;15.90;86.40
51719;DHT22;37795;53.236;5.704;2022-10-17T09:25:25;15.90;86.60
51719;DHT22;37795;53.236;5.704;2022-10-17T09:28:01;15.90;86.70
51719;DHT22;37795;53.236;5.704;2022-10-17T09:33:14;15.90;86.70
51719;DHT22;37795;53.236;5.704;2022-10-17T09:35:41;15.80;87.10
51719;DHT22;37795;53.236;5.704;2022-10-17T09:38:19;15.80;87.30
51719;DHT22;37795;53.236;5.704;2022-10-17T09:40:55;15.80;87.40
51719;DHT22;37795;53.236;5.704;2022-10-17T09:43:22;15.80;87.70
51719;DHT22;37795;53.236;5.704;2022-10-17T09:48:37;15.70;87.70
51719;DHT22;37795;53.236;5.704;2022-10-17T09:51:05;15.80;88.00
51719;DHT22;37795;53.236;5.704;2022-10-17T09:53:37;15.70;88.20
51719;DHT22;37795;53.236;5.704;2022-10-17T09:56:08;15.70;88.20
51719;DHT22;37795;53.236;5.704;2022-10-17T09:58:44;15.80;88.40
51719;DHT22;37795;53.236;5.704;2022-10-17T10:01:30;15.80;88.30
51719;DHT22;37795;53.236;5.704;2022-10-17T10:04:13;15.80;88.30
51719;DHT22;37795;53.236;5.704;2022-10-17T10:06:43;15.80;88.20
51719;DHT22;37795;53.236;5.704;2022-10-17T10:09:27;15.90;88.40
51719;DHT22;37795;53.236;5.704;2022-10-17T10:11:56;15.90;88.20
51719;DHT22;37795;53.236;5.704;2022-10-17T10:14:33;15.90;88.10
51719;DHT22;37795;53.236;5.704;2022-10-17T10:17:05;15.90;88.10
51719;DHT22;37795;53.236;5.704;2022-10-17T10:19:34;15.90;88.10
51719;DHT22;37795;53.236;5.704;2022-10-17T10:22:17;15.90;88.10
51719;DHT22;37795;53.236;5.704;2022-10-17T10:24:43;16.00;88.10
51719;DHT22;37795;53.236;5.704;2022-10-17T10:27:14;16.00;88.00
51719;DHT22;37795;53.236;5.704;2022-10-17T10:29:47;16.00;88.00
51719;DHT22;37795;53.236;5.704;2022-10-17T10:32:31;16.10;87.90
51719;DHT22;37795;53.236;5.704;2022-10-17T10:34:58;16.10;87.70
51719;DHT22;37795;53.236;5.704;2022-10-17T10:37:33;16.10;87.80
51719;DHT22;37795;53.236;5.704;2022-10-17T10:40:06;16.20;87.70
51719;DHT22;37795;53.236;5.704;2022-10-17T10:42:39;16.20;87.70
51719;DHT22;37795;53.236;5.704;2022-10-17T10:47:37;16.30;87.60
51719;DHT22;37795;53.236;5.704;2022-10-17T11:00:15;16.40;87.90
51719;DHT22;37795;53.236;5.704;2022-10-17T11:02:58;16.10;88.30
51719;DHT22;37795;53.236;5.704;2022-10-17T11:05:51;16.20;88.00
51719;DHT22;37795;53.236;5.704;2022-10-17T11:08:26;16.20;87.80
51719;DHT22;37795;53.236;5.704;2022-10-17T11:14:12;16.30;87.60
51719;DHT22;37795;53.236;5.704;2022-10-17T11:17:04;16.30;88.10
51719;DHT22;37795;53.236;5.704;2022-10-17T11:19:48;16.30;87.80
51719;DHT22;37795;53.236;5.704;2022-10-17T11:22:27;16.40;87.70
51719;DHT22;37795;53.236;5.704;2022-10-17T11:24:58;16.40;87.80
51719;DHT22;37795;53.236;5.704;2022-10-17T11:27:27;16.60;87.80
51719;DHT22;37795;53.236;5.704;2022-10-17T11:29:54;16.60;87.40
51719;DHT22;37795;53.236;5.704;2022-10-17T11:32:31;16.60;87.00
51719;DHT22;37795;53.236;5.704;2022-10-17T11:35:20;16.50;87.20
51719;DHT22;37795;53.236;5.704;2022-10-17T11:40:44;16.50;87.00
51719;DHT22;37795;53.236;5.704;2022-10-17T11:46:04;16.40;86.80
51719;DHT22;37795;53.236;5.704;2022-10-17T11:48:38;16.30;86.90
51719;DHT22;37795;53.236;5.704;2022-10-17T11:51:09;16.30;86.80
51719;DHT22;37795;53.236;5.704;2022-10-17T11:53:55;16.20;86.80
51719;DHT22;37795;53.236;5.704;2022-10-17T11:56:52;16.20;86.70
51719;DHT22;37795;53.236;5.704;2022-10-17T12:02:11;16.20;87.00
51719;DHT22;37795;53.236;5.704;2022-10-17T12:05:00;16.20;86.80
51719;DHT22;37795;53.236;5.704;2022-10-17T12:07:49;16.20;86.70
51719;DHT22;37795;53.236;5.704;2022-10-17T12:10:35;16.20;86.70
51719;DHT22;37795;53.236;5.704;2022-10-17T12:19:17;16.20;87.10
51719;DHT22;37795;53.236;5.704;2022-10-17T12:22:23;16.20;87.10
51719;DHT22;37795;53.236;5.704;2022-10-17T12:24:43;16.20;87.20
51719;DHT22;37795;53.236;5.704;2022-10-17T12:27:36;16.20;86.60
51719;DHT22;37795;53.236;5.704;2022-10-17T12:32:37;16.30;86.70
51719;DHT22;37795;53.236;5.704;2022-10-17T12:35:22;16.40;86.20
51719;DHT22;37795;53.236;5.704;2022-10-17T12:43:47;16.50;86.30
51719;DHT22;37795;53.236;5.704;2022-10-17T12:45:55;16.60;86.30
51719;DHT22;37795;53.236;5.704;2022-10-17T12:59:21;16.50;85.20
51719;DHT22;37795;53.236;5.704;2022-10-17T13:01:51;16.40;85.20
51719;DHT22;37795;53.236;5.704;2022-10-17T13:04:17;16.40;85.30
51719;DHT22;37795;53.236;5.704;2022-10-17T13:06:54;16.30;85.40
51719;DHT22;37795;53.236;5.704;2022-10-17T13:09:32;16.30;84.60
51719;DHT22;37795;53.236;5.704;2022-10-17T13:12:03;16.40;84.70
51719;DHT22;37795;53.236;5.704;2022-10-17T13:14:31;16.40;84.90
51719;DHT22;37795;53.236;5.704;2022-10-17T13:19:30;16.40;84.90
51719;DHT22;37795;53.236;5.704;2022-10-17T13:21:58;16.40;84.80
51719;DHT22;37795;53.236;5.704;2022-10-17T13:24:38;16.40;84.80
51719;DHT22;37795;53.236;5.704;2022-10-17T13:27:18;16.40;84.70
51719;DHT22;37795;53.236;5.704;2022-10-17T13:29:45;16.50;84.80
51719;DHT22;37795;53.236;5.704;2022-10-17T13:32:11;16.40;84.40
51719;DHT22;37795;53.236;5.704;2022-10-17T13:34:37;16.30;84.50
51719;DHT22;37795;53.236;5.704;2022-10-17T13:37:09;16.40;85.10
51719;DHT22;37795;53.236;5.704;2022-10-17T13:39:45;16.40;84.80
51719;DHT22;37795;53.236;5.704;2022-10-17T13:42:35;16.30;84.80
51719;DHT22;37795;53.236;5.704;2022-10-17T13:45:03;16.30;84.90
51719;DHT22;37795;53.236;5.704;2022-10-17T13:47:35;16.40;85.00
51719;DHT22;37795;53.236;5.704;2022-10-17T13:50:01;16.40;84.60
51719;DHT22;37795;53.236;5.704;2022-10-17T13:52:28;16.30;84.90
51719;DHT22;37795;53.236;5.704;2022-10-17T13:54:55;16.40;84.40
51719;DHT22;37795;53.236;5.704;2022-10-17T13:57:30;16.40;84.40
51719;DHT22;37795;53.236;5.704;2022-10-17T14:00:00;16.40;84.10
51719;DHT22;37795;53.236;5.704;2022-10-17T14:02:30;16.40;83.70
51719;DHT22;37795;53.236;5.704;2022-10-17T14:05:14;16.50;84.10
51719;DHT22;37795;53.236;5.704;2022-10-17T14:10:24;16.60;83.10
51719;DHT22;37795;53.236;5.704;2022-10-17T14:12:52;16.60;83.40
51719;DHT22;37795;53.236;5.704;2022-10-17T14:15:21;16.50;83.70
51719;DHT22;37795;53.236;5.704;2022-10-17T14:17:57;16.60;83.10
51719;DHT22;37795;53.236;5.704;2022-10-17T14:20:24;16.60;83.70
51719;DHT22;37795;53.236;5.704;2022-10-17T14:22:52;16.60;83.30
51719;DHT22;37795;53.236;5.704;2022-10-17T14:25:34;16.70;83.60
51719;DHT22;37795;53.236;5.704;2022-10-17T14:30:42;16.90;81.70
51719;DHT22;37795;53.236;5.704;2022-10-17T14:33:21;17.00;81.50
51719;DHT22;37795;53.236;5.704;2022-10-17T14:35:52;17.00;81.40
51719;DHT22;37795;53.236;5.704;2022-10-17T14:38:19;17.10;81.50
51719;DHT22;37795;53.236;5.704;2022-10-17T14:41:06;17.10;81.30
51719;DHT22;37795;53.236;5.704;2022-10-17T14:43:33;17.10;80.40
51719;DHT22;37795;53.236;5.704;2022-10-17T14:46:00;17.00;81.10
51719;DHT22;37795;53.236;5.704;2022-10-17T14:48:27;16.90;81.80
51719;DHT22;37795;53.236;5.704;2022-10-17T14:51:10;16.80;81.40
51719;DHT22;37795;53.236;5.704;2022-10-17T14:53:37;16.80;81.40
51719;DHT22;37795;53.236;5.704;2022-10-17T14:56:20;16.70;81.70
51719;DHT22;37795;53.236;5.704;2022-10-17T14:58:46;16.70;81.60
51719;DHT22;37795;53.236;5.704;2022-10-17T15:01:11;16.70;81.80
51719;DHT22;37795;53.236;5.704;2022-10-17T15:03:37;16.70;81.80
51719;DHT22;37795;53.236;5.704;2022-10-17T15:06:18;16.60;81.50
51719;DHT22;37795;53.236;5.704;2022-10-17T15:08:45;16.60;81.80
51719;DHT22;37795;53.236;5.704;2022-10-17T15:11:11;16.50;81.90
51719;DHT22;37795;53.236;5.704;2022-10-17T15:13:37;16.50;81.70
51719;DHT22;37795;53.236;5.704;2022-10-17T15:16:12;16.50;81.70
51719;DHT22;37795;53.236;5.704;2022-10-17T15:18:39;16.50;81.70
51719;DHT22;37795;53.236;5.704;2022-10-17T15:21:11;16.50;81.80
51719;DHT22;37795;53.236;5.704;2022-10-17T15:23:37;16.50;81.90
51719;DHT22;37795;53.236;5.704;2022-10-17T15:26:04;16.40;81.70
51719;DHT22;37795;53.236;5.704;2022-10-17T15:28:33;16.40;81.80
51719;DHT22;37795;53.236;5.704;2022-10-17T15:30:59;16.50;81.80
51719;DHT22;37795;53.236;5.704;2022-10-17T15:33:24;16.40;81.60
51719;DHT22;37795;53.236;5.704;2022-10-17T15:35:50;16.40;81.60
51719;DHT22;37795;53.236;5.704;2022-10-17T15:38:17;16.40;81.80
51719;DHT22;37795;53.236;5.704;2022-10-17T15:40:42;16.40;81.40
51719;DHT22;37795;53.236;5.704;2022-10-17T15:43:08;16.40;81.70
51719;DHT22;37795;53.236;5.704;2022-10-17T15:45:34;16.40;81.50
51719;DHT22;37795;53.236;5.704;2022-10-17T15:48:04;16.30;81.80
51719;DHT22;37795;53.236;5.704;2022-10-17T15:50:30;16.20;82.00
51719;DHT22;37795;53.236;5.704;2022-10-17T15:52:56;16.20;81.80
51719;DHT22;37795;53.236;5.704;2022-10-17T15:55:21;16.10;82.10
51719;DHT22;37795;53.236;5.704;2022-10-17T15:57:47;16.10;82.30
51719;DHT22;37795;53.236;5.704;2022-10-17T16:00:21;16.10;82.50
51719;DHT22;37795;53.236;5.704;2022-10-17T16:02:47;16.10;82.20
51719;DHT22;37795;53.236;5.704;2022-10-17T16:05:16;16.10;82.40
51719;DHT22;37795;53.236;5.704;2022-10-17T16:07:43;16.00;82.70
51719;DHT22;37795;53.236;5.704;2022-10-17T16:10:12;16.00;82.50
51719;DHT22;37795;53.236;5.704;2022-10-17T16:12:38;16.00;82.70
51719;DHT22;37795;53.236;5.704;2022-10-17T16:15:20;16.00;82.60
51719;DHT22;37795;53.236;5.704;2022-10-17T16:17:50;16.00;82.90
51719;DHT22;37795;53.236;5.704;2022-10-17T16:20:17;15.90;83.00
51719;DHT22;37795;53.236;5.704;2022-10-17T16:22:44;15.90;82.90
51719;DHT22;37795;53.236;5.704;2022-10-17T16:25:22;15.80;83.40
51719;DHT22;37795;53.236;5.704;2022-10-17T16:27:50;15.70;83.70
51719;DHT22;37795;53.236;5.704;2022-10-17T16:30:17;15.70;83.50
51719;DHT22;37795;53.236;5.704;2022-10-17T16:32:43;15.70;83.50
51719;DHT22;37795;53.236;5.704;2022-10-17T16:35:15;15.70;83.30
51719;DHT22;37795;53.236;5.704;2022-10-17T16:37:41;15.60;83.50
51719;DHT22;37795;53.236;5.704;2022-10-17T16:40:07;15.50;83.90
51719;DHT22;37795;53.236;5.704;2022-10-17T16:42:32;15.50;83.70
51719;DHT22;37795;53.236;5.704;2022-10-17T16:44:58;15.50;83.80
51719;DHT22;37795;53.236;5.704;2022-10-17T16:47:24;15.50;83.60
51719;DHT22;37795;53.236;5.704;2022-10-17T16:49:49;15.40;84.00
51719;DHT22;37795;53.236;5.704;2022-10-17T16:52:15;15.40;83.80
51719;DHT22;37795;53.236;5.704;2022-10-17T16:54:41;15.40;84.00
51719;DHT22;37795;53.236;5.704;2022-10-17T16:57:07;15.40;84.00
51719;DHT22;37795;53.236;5.704;2022-10-17T16:59:32;15.30;83.80
51719;DHT22;37795;53.236;5.704;2022-10-17T17:01:58;15.20;84.00
51719;DHT22;37795;53.236;5.704;2022-10-17T17:04:24;15.20;84.30
51719;DHT22;37795;53.236;5.704;2022-10-17T17:06:50;15.20;84.30
51719;DHT22;37795;53.236;5.704;2022-10-17T17:09:15;15.20;84.20
51719;DHT22;37795;53.236;5.704;2022-10-17T17:11:41;15.20;84.20
51719;DHT22;37795;53.236;5.704;2022-10-17T17:14:07;15.10;84.20
51719;DHT22;37795;53.236;5.704;2022-10-17T17:16:33;15.20;83.90
51719;DHT22;37795;53.236;5.704;2022-10-17T17:19:02;15.10;84.20
51719;DHT22;37795;53.236;5.704;2022-10-17T17:21:29;15.10;84.10
51719;DHT22;37795;53.236;5.704;2022-10-17T17:23:57;15.10;83.90
51719;DHT22;37795;53.236;5.704;2022-10-17T17:26:24;15.00;84.30
51719;DHT22;37795;53.236;5.704;2022-10-17T17:28:50;15.00;84.30
51719;DHT22;37795;53.236;5.704;2022-10-17T17:31:20;15.00;84.40
51719;DHT22;37795;53.236;5.704;2022-10-17T17:33:47;15.00;84.40
51719;DHT22;37795;53.236;5.704;2022-10-17T17:36:15;15.00;84.60